sensor_id;sensor_type;location;lat;lon;timestamp;P1;durP1;ratioP1;P2;durP2;ratioP2
55537;SDS011;41383;51.418;7.286;2022-09-01T00:01:52;2.90;;;1.27;;
55537;SDS011;41383;51.418;7.286;2022-09-01T00:04:19;3.20;;;1.40;;
55537;SDS011;41383;51.418;7.286;2022-09-01T00:06:47;4.90;;;1.20;;
55537;SDS011;41383;51.418;7.286;2022-09-01T00:09:14;3.53;;;1.17;;
55537;SDS011;41383;51.418;7.286;2022-09-01T00:11:43;2.28;;;1.30;;
55537;SDS011;41383;51.418;7.286;2022-09-01T00:14:10;2.65;;;1.65;;
55537;SDS011;41383;51.418;7.286;2022-09-01T00:16:37;3.60;;;1.33;;
55537;SDS011;41383;51.418;7.286;2022-09-01T00:19:03;16.35;;;1.38;;
55537;SDS011;41383;51.418;7.286;2022-09-01T00:21:30;27.50;;;2.30;;
55537;SDS011;41383;51.418;7.286;2022-09-01T00:23:58;2.92;;;1.42;;
55537;SDS011;41383;51.418;7.286;2022-09-01T00:26:24;5.55;;;2.10;;
55537;SDS011;41383;51.418;7.286;2022-09-01T00:28:49;7.43;;;3.13;;
55537;SDS011;41383;51.418;7.286;2022-09-01T00:31:15;10.27;;;2.03;;
55537;SDS011;41383;51.418;7.286;2022-09-01T00:33:43;7.85;;;1.98;;
55537;SDS011;41383;51.418;7.286;2022-09-01T00:36:09;9.40;;;2.30;;
55537;SDS011;41383;51.418;7.286;2022-09-01T00:38:34;4.00;;;1.45;;
55537;SDS011;41383;51.418;7.286;2022-09-01T00:41:01;3.65;;;1.38;;
55537;SDS011;41383;51.418;7.286;2022-09-01T00:48:37;4.43;;;1.58;;
55537;SDS011;41383;51.418;7.286;2022-09-01T00:51:03;3.20;;;1.20;;
55537;SDS011;41383;51.418;7.286;2022-09-01T00:53:30;5.70;;;1.65;;
55537;SDS011;41383;51.418;7.286;2022-09-01T00:55:56;4.38;;;1.80;;
55537;SDS011;41383;51.418;7.286;2022-09-01T00:58:21;7.18;;;2.30;;
55537;SDS011;41383;51.418;7.286;2022-09-01T01:00:47;6.10;;;3.05;;
55537;SDS011;41383;51.418;7.286;2022-09-01T01:03:15;14.93;;;2.35;;
55537;SDS011;41383;51.418;7.286;2022-09-01T01:05:42;5.57;;;2.33;;
55537;SDS011;41383;51.418;7.286;2022-09-01T01:08:13;6.60;;;2.10;;
55537;SDS011;41383;51.418;7.286;2022-09-01T01:10:42;5.40;;;1.88;;
55537;SDS011;41383;51.418;7.286;2022-09-01T01:13:08;8.50;;;2.30;;
55537;SDS011;41383;51.418;7.286;2022-09-01T01:15:38;3.45;;;1.50;;
55537;SDS011;41383;51.418;7.286;2022-09-01T01:18:08;4.47;;;1.58;;
55537;SDS011;41383;51.418;7.286;2022-09-01T01:20:35;3.63;;;1.42;;
55537;SDS011;41383;51.418;7.286;2022-09-01T01:26:01;4.32;;;2.20;;
55537;SDS011;41383;51.418;7.286;2022-09-01T01:28:29;2.28;;;1.23;;
55537;SDS011;41383;51.418;7.286;2022-09-01T01:31:00;5.35;;;1.95;;
55537;SDS011;41383;51.418;7.286;2022-09-01T01:33:39;4.45;;;2.22;;
55537;SDS011;41383;51.418;7.286;2022-09-01T01:36:08;3.67;;;1.40;;
55537;SDS011;41383;51.418;7.286;2022-09-01T01:38:37;4.05;;;1.80;;
55537;SDS011;41383;51.418;7.286;2022-09-01T01:41:05;3.47;;;1.60;;
55537;SDS011;41383;51.418;7.286;2022-09-01T01:43:30;3.75;;;2.05;;
55537;SDS011;41383;51.418;7.286;2022-09-01T01:45:56;8.52;;;1.40;;
55537;SDS011;41383;51.418;7.286;2022-09-01T01:48:27;5.38;;;1.90;;
55537;SDS011;41383;51.418;7.286;2022-09-01T01:50:54;3.55;;;1.67;;
55537;SDS011;41383;51.418;7.286;2022-09-01T01:53:22;3.78;;;1.55;;
55537;SDS011;41383;51.418;7.286;2022-09-01T01:55:47;3.17;;;1.70;;
55537;SDS011;41383;51.418;7.286;2022-09-01T01:58:14;3.80;;;1.73;;
55537;SDS011;41383;51.418;7.286;2022-09-01T02:00:47;4.05;;;2.03;;
55537;SDS011;41383;51.418;7.286;2022-09-01T02:03:15;3.78;;;1.83;;
55537;SDS011;41383;51.418;7.286;2022-09-01T02:05:44;7.75;;;2.05;;
55537;SDS011;41383;51.418;7.286;2022-09-01T02:08:12;2.80;;;1.90;;
55537;SDS011;41383;51.418;7.286;2022-09-01T02:10:40;5.55;;;2.30;;
55537;SDS011;41383;51.418;7.286;2022-09-01T02:13:11;4.45;;;1.75;;
55537;SDS011;41383;51.418;7.286;2022-09-01T02:15:49;4.57;;;2.08;;
55537;SDS011;41383;51.418;7.286;2022-09-01T02:20:51;4.25;;;2.10;;
55537;SDS011;41383;51.418;7.286;2022-09-01T02:23:18;5.53;;;2.60;;
55537;SDS011;41383;51.418;7.286;2022-09-01T02:25:47;4.40;;;2.15;;
55537;SDS011;41383;51.418;7.286;2022-09-01T02:28:15;6.78;;;2.00;;
55537;SDS011;41383;51.418;7.286;2022-09-01T02:30:46;3.85;;;1.83;;
55537;SDS011;41383;51.418;7.286;2022-09-01T02:33:15;6.57;;;2.97;;
55537;SDS011;41383;51.418;7.286;2022-09-01T02:35:45;13.15;;;3.50;;
55537;SDS011;41383;51.418;7.286;2022-09-01T02:38:11;10.77;;;4.15;;
55537;SDS011;41383;51.418;7.286;2022-09-01T02:40:38;10.70;;;4.32;;
55537;SDS011;41383;51.418;7.286;2022-09-01T02:43:11;7.50;;;3.50;;
55537;SDS011;41383;51.418;7.286;2022-09-01T02:45:37;5.93;;;2.67;;
55537;SDS011;41383;51.418;7.286;2022-09-01T02:48:04;5.45;;;3.13;;
55537;SDS011;41383;51.418;7.286;2022-09-01T02:50:34;7.20;;;2.67;;
55537;SDS011;41383;51.418;7.286;2022-09-01T02:53:03;7.45;;;2.30;;
55537;SDS011;41383;51.418;7.286;2022-09-01T02:55:43;5.43;;;2.72;;
55537;SDS011;41383;51.418;7.286;2022-09-01T02:58:08;3.92;;;2.08;;
55537;SDS011;41383;51.418;7.286;2022-09-01T03:00:40;7.10;;;2.65;;
55537;SDS011;41383;51.418;7.286;2022-09-01T03:03:08;16.02;;;2.38;;
55537;SDS011;41383;51.418;7.286;2022-09-01T03:05:36;6.25;;;3.22;;
55537;SDS011;41383;51.418;7.286;2022-09-01T03:08:04;8.95;;;2.72;;
55537;SDS011;41383;51.418;7.286;2022-09-01T03:10:34;4.28;;;2.13;;
55537;SDS011;41383;51.418;7.286;2022-09-01T03:13:07;10.35;;;3.88;;
55537;SDS011;41383;51.418;7.286;2022-09-01T03:15:35;4.63;;;2.53;;
55537;SDS011;41383;51.418;7.286;2022-09-01T03:18:02;4.07;;;2.08;;
55537;SDS011;41383;51.418;7.286;2022-09-01T03:20:29;7.22;;;2.60;;
55537;SDS011;41383;51.418;7.286;2022-09-01T03:22:58;8.15;;;2.55;;
55537;SDS011;41383;51.418;7.286;2022-09-01T03:25:27;6.15;;;2.50;;
55537;SDS011;41383;51.418;7.286;2022-09-01T03:27:54;4.70;;;2.28;;
55537;SDS011;41383;51.418;7.286;2022-09-01T03:30:27;5.05;;;2.33;;
55537;SDS011;41383;51.418;7.286;2022-09-01T03:32:55;5.18;;;2.95;;
55537;SDS011;41383;51.418;7.286;2022-09-01T03:35:21;7.53;;;3.55;;
55537;SDS011;41383;51.418;7.286;2022-09-01T03:37:47;7.93;;;3.88;;
55537;SDS011;41383;51.418;7.286;2022-09-01T03:40:12;7.65;;;3.80;;
55537;SDS011;41383;51.418;7.286;2022-09-01T03:42:39;12.50;;;4.28;;
55537;SDS011;41383;51.418;7.286;2022-09-01T03:45:06;7.97;;;3.33;;
55537;SDS011;41383;51.418;7.286;2022-09-01T03:47:33;6.88;;;3.47;;
55537;SDS011;41383;51.418;7.286;2022-09-01T03:50:05;8.95;;;3.50;;
55537;SDS011;41383;51.418;7.286;2022-09-01T03:52:36;12.30;;;4.07;;
55537;SDS011;41383;51.418;7.286;2022-09-01T03:55:03;6.35;;;3.35;;
55537;SDS011;41383;51.418;7.286;2022-09-01T03:57:29;6.45;;;3.60;;
55537;SDS011;41383;51.418;7.286;2022-09-01T03:59:54;7.35;;;2.83;;
55537;SDS011;41383;51.418;7.286;2022-09-01T04:02:20;9.30;;;3.83;;
55537;SDS011;41383;51.418;7.286;2022-09-01T04:04:46;13.75;;;5.07;;
55537;SDS011;41383;51.418;7.286;2022-09-01T04:07:12;15.15;;;5.13;;
55537;SDS011;41383;51.418;7.286;2022-09-01T04:09:37;9.77;;;4.37;;
55537;SDS011;41383;51.418;7.286;2022-09-01T04:12:03;8.13;;;3.88;;
55537;SDS011;41383;51.418;7.286;2022-09-01T04:14:33;10.50;;;4.78;;
55537;SDS011;41383;51.418;7.286;2022-09-01T04:16:59;9.95;;;4.68;;
55537;SDS011;41383;51.418;7.286;2022-09-01T04:22:08;10.27;;;5.33;;
55537;SDS011;41383;51.418;7.286;2022-09-01T04:24:37;8.73;;;3.63;;
55537;SDS011;41383;51.418;7.286;2022-09-01T04:27:09;10.00;;;5.45;;
55537;SDS011;41383;51.418;7.286;2022-09-01T04:29:35;7.40;;;4.22;;
55537;SDS011;41383;51.418;7.286;2022-09-01T04:32:05;11.38;;;4.38;;
55537;SDS011;41383;51.418;7.286;2022-09-01T04:34:36;8.75;;;2.75;;
55537;SDS011;41383;51.418;7.286;2022-09-01T04:37:06;14.60;;;4.35;;
55537;SDS011;41383;51.418;7.286;2022-09-01T04:39:32;9.45;;;4.25;;
55537;SDS011;41383;51.418;7.286;2022-09-01T04:42:00;16.13;;;4.18;;
55537;SDS011;41383;51.418;7.286;2022-09-01T04:44:30;5.15;;;2.97;;
55537;SDS011;41383;51.418;7.286;2022-09-01T04:46:55;5.80;;;2.42;;
55537;SDS011;41383;51.418;7.286;2022-09-01T04:49:21;6.65;;;2.55;;
55537;SDS011;41383;51.418;7.286;2022-09-01T04:51:48;5.95;;;2.33;;
55537;SDS011;41383;51.418;7.286;2022-09-01T04:54:15;8.75;;;3.03;;
55537;SDS011;41383;51.418;7.286;2022-09-01T04:56:42;7.25;;;2.25;;
55537;SDS011;41383;51.418;7.286;2022-09-01T04:59:11;6.15;;;2.65;;
55537;SDS011;41383;51.418;7.286;2022-09-01T05:01:37;7.07;;;2.95;;
55537;SDS011;41383;51.418;7.286;2022-09-01T05:04:10;3.80;;;1.85;;
55537;SDS011;41383;51.418;7.286;2022-09-01T05:06:41;3.85;;;1.90;;
55537;SDS011;41383;51.418;7.286;2022-09-01T05:09:11;5.50;;;2.20;;
55537;SDS011;41383;51.418;7.286;2022-09-01T05:11:39;5.25;;;3.03;;
55537;SDS011;41383;51.418;7.286;2022-09-01T05:14:09;6.00;;;2.22;;
55537;SDS011;41383;51.418;7.286;2022-09-01T05:16:36;6.72;;;2.40;;
55537;SDS011;41383;51.418;7.286;2022-09-01T05:19:05;5.32;;;2.10;;
55537;SDS011;41383;51.418;7.286;2022-09-01T05:21:31;7.35;;;2.35;;
55537;SDS011;41383;51.418;7.286;2022-09-01T05:23:57;8.30;;;2.63;;
55537;SDS011;41383;51.418;7.286;2022-09-01T05:26:26;5.10;;;2.05;;
55537;SDS011;41383;51.418;7.286;2022-09-01T05:28:57;5.95;;;2.97;;
55537;SDS011;41383;51.418;7.286;2022-09-01T05:31:26;4.05;;;2.33;;
55537;SDS011;41383;51.418;7.286;2022-09-01T05:33:53;6.03;;;2.70;;
55537;SDS011;41383;51.418;7.286;2022-09-01T05:36:20;3.53;;;2.05;;
55537;SDS011;41383;51.418;7.286;2022-09-01T05:38:47;5.35;;;2.63;;
55537;SDS011;41383;51.418;7.286;2022-09-01T05:41:13;6.00;;;3.17;;
55537;SDS011;41383;51.418;7.286;2022-09-01T05:43:41;5.70;;;2.15;;
55537;SDS011;41383;51.418;7.286;2022-09-01T05:46:13;6.20;;;2.17;;
55537;SDS011;41383;51.418;7.286;2022-09-01T05:48:41;9.10;;;2.85;;
55537;SDS011;41383;51.418;7.286;2022-09-01T05:51:10;5.40;;;2.53;;
55537;SDS011;41383;51.418;7.286;2022-09-01T05:53:40;6.35;;;2.47;;
55537;SDS011;41383;51.418;7.286;2022-09-01T05:56:07;12.07;;;3.17;;
55537;SDS011;41383;51.418;7.286;2022-09-01T05:58:34;4.05;;;2.13;;
55537;SDS011;41383;51.418;7.286;2022-09-01T06:01:00;11.95;;;2.78;;
55537;SDS011;41383;51.418;7.286;2022-09-01T06:03:26;7.32;;;2.67;;
55537;SDS011;41383;51.418;7.286;2022-09-01T06:05:52;8.48;;;3.47;;
55537;SDS011;41383;51.418;7.286;2022-09-01T06:08:20;7.43;;;2.97;;
55537;SDS011;41383;51.418;7.286;2022-09-01T06:10:48;6.25;;;2.85;;
55537;SDS011;41383;51.418;7.286;2022-09-01T06:13:14;6.88;;;2.75;;
55537;SDS011;41383;51.418;7.286;2022-09-01T06:15:41;5.43;;;2.33;;
55537;SDS011;41383;51.418;7.286;2022-09-01T06:18:09;5.80;;;2.83;;
55537;SDS011;41383;51.418;7.286;2022-09-01T06:20:43;5.97;;;2.50;;
55537;SDS011;41383;51.418;7.286;2022-09-01T06:23:11;6.05;;;3.00;;
55537;SDS011;41383;51.418;7.286;2022-09-01T06:25:39;6.75;;;2.38;;
55537;SDS011;41383;51.418;7.286;2022-09-01T06:28:07;4.78;;;2.45;;
55537;SDS011;41383;51.418;7.286;2022-09-01T06:30:35;5.80;;;2.38;;
55537;SDS011;41383;51.418;7.286;2022-09-01T06:33:01;6.88;;;2.63;;
55537;SDS011;41383;51.418;7.286;2022-09-01T06:35:30;4.53;;;2.08;;
55537;SDS011;41383;51.418;7.286;2022-09-01T06:37:56;8.02;;;3.83;;
55537;SDS011;41383;51.418;7.286;2022-09-01T06:40:22;8.15;;;3.72;;
55537;SDS011;41383;51.418;7.286;2022-09-01T06:42:49;7.25;;;3.13;;
55537;SDS011;41383;51.418;7.286;2022-09-01T06:45:17;5.20;;;2.83;;
55537;SDS011;41383;51.418;7.286;2022-09-01T06:47:45;13.70;;;3.80;;
55537;SDS011;41383;51.418;7.286;2022-09-01T06:50:12;12.20;;;4.43;;
55537;SDS011;41383;51.418;7.286;2022-09-01T06:52:42;9.80;;;4.05;;
55537;SDS011;41383;51.418;7.286;2022-09-01T06:55:13;8.88;;;3.95;;
55537;SDS011;41383;51.418;7.286;2022-09-01T06:57:39;11.65;;;4.07;;
55537;SDS011;41383;51.418;7.286;2022-09-01T07:00:07;8.52;;;3.92;;
55537;SDS011;41383;51.418;7.286;2022-09-01T07:02:39;4.95;;;3.13;;
55537;SDS011;41383;51.418;7.286;2022-09-01T07:05:05;8.77;;;3.47;;
55537;SDS011;41383;51.418;7.286;2022-09-01T07:07:31;7.40;;;3.40;;
55537;SDS011;41383;51.418;7.286;2022-09-01T07:09:58;5.95;;;3.28;;
55537;SDS011;41383;51.418;7.286;2022-09-01T07:12:23;9.07;;;2.50;;
55537;SDS011;41383;51.418;7.286;2022-09-01T07:14:49;7.35;;;3.15;;
55537;SDS011;41383;51.418;7.286;2022-09-01T07:17:16;11.10;;;3.08;;
55537;SDS011;41383;51.418;7.286;2022-09-01T07:19:42;6.70;;;3.42;;
55537;SDS011;41383;51.418;7.286;2022-09-01T07:22:07;5.30;;;2.55;;
55537;SDS011;41383;51.418;7.286;2022-09-01T07:24:32;7.15;;;3.10;;
55537;SDS011;41383;51.418;7.286;2022-09-01T07:26:58;13.25;;;3.85;;
55537;SDS011;41383;51.418;7.286;2022-09-01T07:29:23;6.10;;;2.90;;
55537;SDS011;41383;51.418;7.286;2022-09-01T07:31:50;5.82;;;2.95;;
55537;SDS011;41383;51.418;7.286;2022-09-01T07:34:20;7.47;;;2.72;;
55537;SDS011;41383;51.418;7.286;2022-09-01T07:36:46;11.35;;;2.60;;
55537;SDS011;41383;51.418;7.286;2022-09-01T07:39:12;9.30;;;2.97;;
55537;SDS011;41383;51.418;7.286;2022-09-01T07:41:38;5.57;;;2.15;;
55537;SDS011;41383;51.418;7.286;2022-09-01T07:44:06;7.20;;;2.78;;
55537;SDS011;41383;51.418;7.286;2022-09-01T07:46:34;7.28;;;2.10;;
55537;SDS011;41383;51.418;7.286;2022-09-01T07:49:00;9.55;;;2.80;;
55537;SDS011;41383;51.418;7.286;2022-09-01T07:51:27;7.13;;;2.35;;
55537;SDS011;41383;51.418;7.286;2022-09-01T07:53:53;4.20;;;2.08;;
55537;SDS011;41383;51.418;7.286;2022-09-01T07:56:20;4.57;;;2.40;;
55537;SDS011;41383;51.418;7.286;2022-09-01T07:58:48;4.18;;;2.33;;
55537;SDS011;41383;51.418;7.286;2022-09-01T08:01:18;5.05;;;2.00;;
55537;SDS011;41383;51.418;7.286;2022-09-01T08:03:45;6.20;;;2.20;;
55537;SDS011;41383;51.418;7.286;2022-09-01T08:06:14;8.95;;;2.33;;
55537;SDS011;41383;51.418;7.286;2022-09-01T08:08:43;9.57;;;2.30;;
55537;SDS011;41383;51.418;7.286;2022-09-01T08:11:08;13.55;;;3.15;;
55537;SDS011;41383;51.418;7.286;2022-09-01T08:13:34;8.10;;;2.37;;
55537;SDS011;41383;51.418;7.286;2022-09-01T08:16:05;5.20;;;2.13;;
55537;SDS011;41383;51.418;7.286;2022-09-01T08:18:30;9.93;;;2.45;;
55537;SDS011;41383;51.418;7.286;2022-09-01T08:20:56;2.58;;;1.27;;
55537;SDS011;41383;51.418;7.286;2022-09-01T08:23:21;3.20;;;1.67;;
55537;SDS011;41383;51.418;7.286;2022-09-01T08:25:50;3.83;;;1.48;;
55537;SDS011;41383;51.418;7.286;2022-09-01T08:28:16;5.70;;;2.20;;
55537;SDS011;41383;51.418;7.286;2022-09-01T08:30:42;5.10;;;1.50;;
55537;SDS011;41383;51.418;7.286;2022-09-01T08:33:08;5.38;;;2.13;;
55537;SDS011;41383;51.418;7.286;2022-09-01T08:35:38;3.83;;;1.73;;
55537;SDS011;41383;51.418;7.286;2022-09-01T08:38:05;5.80;;;1.85;;
55537;SDS011;41383;51.418;7.286;2022-09-01T08:40:31;3.70;;;1.27;;
55537;SDS011;41383;51.418;7.286;2022-09-01T08:43:15;12.05;;;1.88;;
55537;SDS011;41383;51.418;7.286;2022-09-01T08:45:50;2.80;;;1.27;;
55537;SDS011;41383;51.418;7.286;2022-09-01T08:48:23;4.35;;;2.55;;
55537;SDS011;41383;51.418;7.286;2022-09-01T08:50:59;5.38;;;2.03;;
55537;SDS011;41383;51.418;7.286;2022-09-01T08:53:34;3.15;;;1.15;;
55537;SDS011;41383;51.418;7.286;2022-09-01T08:58:33;2.00;;;0.90;;
55537;SDS011;41383;51.418;7.286;2022-09-01T09:01:00;5.88;;;1.15;;
55537;SDS011;41383;51.418;7.286;2022-09-01T09:03:36;2.92;;;1.08;;
55537;SDS011;41383;51.418;7.286;2022-09-01T09:09:12;4.05;;;1.10;;
55537;SDS011;41383;51.418;7.286;2022-09-01T09:11:40;2.67;;;1.20;;
55537;SDS011;41383;51.418;7.286;2022-09-01T09:14:44;5.72;;;1.02;;
55537;SDS011;41383;51.418;7.286;2022-09-01T09:17:21;5.63;;;1.02;;
55537;SDS011;41383;51.418;7.286;2022-09-01T09:19:51;3.60;;;1.30;;
55537;SDS011;41383;51.418;7.286;2022-09-01T09:22:18;3.63;;;0.80;;
55537;SDS011;41383;51.418;7.286;2022-09-01T09:24:51;2.95;;;1.23;;
55537;SDS011;41383;51.418;7.286;2022-09-01T09:27:25;2.63;;;1.55;;
55537;SDS011;41383;51.418;7.286;2022-09-01T09:30:06;2.67;;;1.20;;
55537;SDS011;41383;51.418;7.286;2022-09-01T09:37:52;4.05;;;1.38;;
55537;SDS011;41383;51.418;7.286;2022-09-01T09:40:19;4.55;;;1.60;;
55537;SDS011;41383;51.418;7.286;2022-09-01T09:45:23;6.45;;;2.17;;
55537;SDS011;41383;51.418;7.286;2022-09-01T09:47:50;4.50;;;2.08;;
55537;SDS011;41383;51.418;7.286;2022-09-01T09:53:14;5.70;;;1.98;;
55537;SDS011;41383;51.418;7.286;2022-09-01T09:55:53;2.65;;;1.52;;
55537;SDS011;41383;51.418;7.286;2022-09-01T09:58:40;4.63;;;1.95;;
55537;SDS011;41383;51.418;7.286;2022-09-01T10:01:12;2.72;;;1.67;;
55537;SDS011;41383;51.418;7.286;2022-09-01T10:03:53;2.78;;;1.42;;
55537;SDS011;41383;51.418;7.286;2022-09-01T10:06:31;2.83;;;1.52;;
55537;SDS011;41383;51.418;7.286;2022-09-01T10:09:47;2.28;;;1.20;;
55537;SDS011;41383;51.418;7.286;2022-09-01T10:11:50;3.92;;;1.35;;
55537;SDS011;41383;51.418;7.286;2022-09-01T10:14:21;3.97;;;1.33;;
55537;SDS011;41383;51.418;7.286;2022-09-01T10:16:52;2.63;;;1.20;;
55537;SDS011;41383;51.418;7.286;2022-09-01T10:19:23;3.88;;;1.88;;
55537;SDS011;41383;51.418;7.286;2022-09-01T10:21:51;8.15;;;1.20;;
55537;SDS011;41383;51.418;7.286;2022-09-01T10:24:30;6.28;;;1.55;;
55537;SDS011;41383;51.418;7.286;2022-09-01T10:27:00;5.80;;;1.42;;
55537;SDS011;41383;51.418;7.286;2022-09-01T10:29:30;2.72;;;1.42;;
55537;SDS011;41383;51.418;7.286;2022-09-01T10:32:01;3.85;;;1.58;;
55537;SDS011;41383;51.418;7.286;2022-09-01T10:34:32;4.97;;;1.60;;
55537;SDS011;41383;51.418;7.286;2022-09-01T10:37:00;3.97;;;1.30;;
55537;SDS011;41383;51.418;7.286;2022-09-01T10:39:26;4.47;;;1.92;;
55537;SDS011;41383;51.418;7.286;2022-09-01T10:41:52;4.25;;;1.73;;
55537;SDS011;41383;51.418;7.286;2022-09-01T10:44:28;2.75;;;1.52;;
55537;SDS011;41383;51.418;7.286;2022-09-01T10:46:59;2.78;;;1.35;;
55537;SDS011;41383;51.418;7.286;2022-09-01T10:51:59;2.27;;;1.20;;
55537;SDS011;41383;51.418;7.286;2022-09-01T10:57:09;5.30;;;1.60;;
55537;SDS011;41383;51.418;7.286;2022-09-01T10:59:45;3.28;;;1.90;;
55537;SDS011;41383;51.418;7.286;2022-09-01T11:02:15;4.57;;;1.40;;
55537;SDS011;41383;51.418;7.286;2022-09-01T11:10:06;12.43;;;2.22;;
55537;SDS011;41383;51.418;7.286;2022-09-01T11:15:36;4.30;;;1.30;;
55537;SDS011;41383;51.418;7.286;2022-09-01T11:18:07;3.15;;;1.20;;
55537;SDS011;41383;51.418;7.286;2022-09-01T11:20:38;4.70;;;1.23;;
55537;SDS011;41383;51.418;7.286;2022-09-01T11:23:06;5.25;;;1.80;;
55537;SDS011;41383;51.418;7.286;2022-09-01T11:25:59;2.83;;;1.38;;
55537;SDS011;41383;51.418;7.286;2022-09-01T11:36:34;4.80;;;1.30;;
55537;SDS011;41383;51.418;7.286;2022-09-01T11:39:05;3.00;;;1.10;;
55537;SDS011;41383;51.418;7.286;2022-09-01T11:47:01;3.28;;;1.60;;
55537;SDS011;41383;51.418;7.286;2022-09-01T11:52:12;7.10;;;1.48;;
55537;SDS011;41383;51.418;7.286;2022-09-01T11:54:40;5.07;;;1.65;;
55537;SDS011;41383;51.418;7.286;2022-09-01T11:57:26;4.40;;;1.60;;
55537;SDS011;41383;51.418;7.286;2022-09-01T11:59:54;3.45;;;1.67;;
55537;SDS011;41383;51.418;7.286;2022-09-01T12:02:29;3.40;;;1.80;;
55537;SDS011;41383;51.418;7.286;2022-09-01T12:04:58;3.30;;;1.25;;
55537;SDS011;41383;51.418;7.286;2022-09-01T12:10:03;3.03;;;1.38;;
55537;SDS011;41383;51.418;7.286;2022-09-01T12:15:24;4.82;;;1.85;;
55537;SDS011;41383;51.418;7.286;2022-09-01T12:17:51;2.55;;;1.45;;
55537;SDS011;41383;51.418;7.286;2022-09-01T12:20:22;4.50;;;1.80;;
55537;SDS011;41383;51.418;7.286;2022-09-01T12:22:53;3.53;;;1.85;;
55537;SDS011;41383;51.418;7.286;2022-09-01T12:25:26;7.75;;;1.60;;
55537;SDS011;41383;51.418;7.286;2022-09-01T12:27:54;2.75;;;1.40;;
55537;SDS011;41383;51.418;7.286;2022-09-01T12:30:20;3.95;;;1.88;;
55537;SDS011;41383;51.418;7.286;2022-09-01T12:32:49;4.38;;;2.13;;
55537;SDS011;41383;51.418;7.286;2022-09-01T12:35:16;3.05;;;1.55;;
55537;SDS011;41383;51.418;7.286;2022-09-01T12:37:45;3.80;;;1.10;;
55537;SDS011;41383;51.418;7.286;2022-09-01T12:40:31;4.10;;;1.20;;
55537;SDS011;41383;51.418;7.286;2022-09-01T12:42:58;4.40;;;2.20;;
55537;SDS011;41383;51.418;7.286;2022-09-01T12:45:40;3.58;;;1.73;;
55537;SDS011;41383;51.418;7.286;2022-09-01T12:48:22;4.57;;;1.67;;
55537;SDS011;41383;51.418;7.286;2022-09-01T12:50:49;4.30;;;1.40;;
55537;SDS011;41383;51.418;7.286;2022-09-01T12:53:18;5.05;;;1.40;;
55537;SDS011;41383;51.418;7.286;2022-09-01T12:55:55;4.82;;;1.60;;
55537;SDS011;41383;51.418;7.286;2022-09-01T12:58:24;2.78;;;1.58;;
55537;SDS011;41383;51.418;7.286;2022-09-01T13:01:00;5.15;;;1.77;;
55537;SDS011;41383;51.418;7.286;2022-09-01T13:03:32;2.58;;;1.40;;
55537;SDS011;41383;51.418;7.286;2022-09-01T13:05:59;2.40;;;1.48;;
55537;SDS011;41383;51.418;7.286;2022-09-01T13:08:27;6.97;;;1.65;;
55537;SDS011;41383;51.418;7.286;2022-09-01T13:13:28;2.67;;;1.35;;
55537;SDS011;41383;51.418;7.286;2022-09-01T13:15:54;2.67;;;1.15;;
55537;SDS011;41383;51.418;7.286;2022-09-01T13:18:24;1.75;;;1.17;;
55537;SDS011;41383;51.418;7.286;2022-09-01T13:20:50;2.58;;;1.50;;
55537;SDS011;41383;51.418;7.286;2022-09-01T13:23:17;5.32;;;1.77;;
55537;SDS011;41383;51.418;7.286;2022-09-01T13:25:43;3.25;;;1.30;;
55537;SDS011;41383;51.418;7.286;2022-09-01T13:28:09;2.70;;;1.50;;
55537;SDS011;41383;51.418;7.286;2022-09-01T13:30:35;1.92;;;1.02;;
55537;SDS011;41383;51.418;7.286;2022-09-01T13:33:02;3.03;;;1.40;;
55537;SDS011;41383;51.418;7.286;2022-09-01T13:35:27;2.72;;;1.35;;
55537;SDS011;41383;51.418;7.286;2022-09-01T13:37:52;1.67;;;1.13;;
55537;SDS011;41383;51.418;7.286;2022-09-01T13:40:18;11.03;;;1.70;;
55537;SDS011;41383;51.418;7.286;2022-09-01T13:42:45;1.75;;;1.02;;
55537;SDS011;41383;51.418;7.286;2022-09-01T13:45:13;3.50;;;1.35;;
55537;SDS011;41383;51.418;7.286;2022-09-01T13:47:42;4.03;;;1.60;;
55537;SDS011;41383;51.418;7.286;2022-09-01T13:50:09;3.17;;;1.38;;
55537;SDS011;41383;51.418;7.286;2022-09-01T13:52:38;2.80;;;1.25;;
55537;SDS011;41383;51.418;7.286;2022-09-01T13:55:05;6.57;;;2.55;;
55537;SDS011;41383;51.418;7.286;2022-09-01T13:57:31;5.90;;;1.15;;
55537;SDS011;41383;51.418;7.286;2022-09-01T13:59:57;3.10;;;1.42;;
55537;SDS011;41383;51.418;7.286;2022-09-01T14:02:23;2.20;;;1.40;;
55537;SDS011;41383;51.418;7.286;2022-09-01T14:04:50;4.97;;;1.70;;
55537;SDS011;41383;51.418;7.286;2022-09-01T14:07:15;3.13;;;1.17;;
55537;SDS011;41383;51.418;7.286;2022-09-01T14:09:42;4.85;;;1.45;;
55537;SDS011;41383;51.418;7.286;2022-09-01T14:12:08;2.95;;;1.08;;
55537;SDS011;41383;51.418;7.286;2022-09-01T14:14:33;3.53;;;1.30;;
55537;SDS011;41383;51.418;7.286;2022-09-01T14:16:59;3.13;;;1.07;;
55537;SDS011;41383;51.418;7.286;2022-09-01T14:19:25;6.72;;;1.65;;
55537;SDS011;41383;51.418;7.286;2022-09-01T14:21:50;4.60;;;2.03;;
55537;SDS011;41383;51.418;7.286;2022-09-01T14:24:15;3.10;;;1.13;;
55537;SDS011;41383;51.418;7.286;2022-09-01T14:26:43;7.15;;;1.60;;
55537;SDS011;41383;51.418;7.286;2022-09-01T14:29:09;5.45;;;1.42;;
55537;SDS011;41383;51.418;7.286;2022-09-01T14:31:35;1.83;;;1.20;;
55537;SDS011;41383;51.418;7.286;2022-09-01T14:34:01;2.50;;;1.27;;
55537;SDS011;41383;51.418;7.286;2022-09-01T14:36:27;2.67;;;0.90;;
55537;SDS011;41383;51.418;7.286;2022-09-01T14:38:53;3.42;;;1.20;;
55537;SDS011;41383;51.418;7.286;2022-09-01T14:41:18;2.67;;;1.40;;
55537;SDS011;41383;51.418;7.286;2022-09-01T14:43:48;4.00;;;1.48;;
55537;SDS011;41383;51.418;7.286;2022-09-01T14:46:17;6.40;;;1.58;;
55537;SDS011;41383;51.418;7.286;2022-09-01T14:48:44;2.50;;;1.25;;
55537;SDS011;41383;51.418;7.286;2022-09-01T14:51:18;1.50;;;1.15;;
55537;SDS011;41383;51.418;7.286;2022-09-01T14:53:46;4.25;;;1.27;;
55537;SDS011;41383;51.418;7.286;2022-09-01T14:56:12;1.77;;;1.08;;
55537;SDS011;41383;51.418;7.286;2022-09-01T14:58:38;5.88;;;1.65;;
55537;SDS011;41383;51.418;7.286;2022-09-01T15:01:06;5.38;;;2.22;;
55537;SDS011;41383;51.418;7.286;2022-09-01T15:03:31;7.70;;;1.97;;
55537;SDS011;41383;51.418;7.286;2022-09-01T15:05:58;2.72;;;1.10;;
55537;SDS011;41383;51.418;7.286;2022-09-01T15:08:23;4.47;;;1.40;;
55537;SDS011;41383;51.418;7.286;2022-09-01T15:10:49;3.80;;;1.30;;
55537;SDS011;41383;51.418;7.286;2022-09-01T15:13:14;3.30;;;1.70;;
55537;SDS011;41383;51.418;7.286;2022-09-01T15:15:40;4.15;;;1.00;;
55537;SDS011;41383;51.418;7.286;2022-09-01T15:18:05;8.23;;;1.38;;
55537;SDS011;41383;51.418;7.286;2022-09-01T15:20:31;3.10;;;1.20;;
55537;SDS011;41383;51.418;7.286;2022-09-01T15:23:21;2.85;;;1.15;;
55537;SDS011;41383;51.418;7.286;2022-09-01T15:25:50;1.55;;;1.13;;
55537;SDS011;41383;51.418;7.286;2022-09-01T15:28:17;3.92;;;1.75;;
55537;SDS011;41383;51.418;7.286;2022-09-01T15:30:42;2.45;;;0.90;;
55537;SDS011;41383;51.418;7.286;2022-09-01T15:33:09;5.45;;;1.17;;
55537;SDS011;41383;51.418;7.286;2022-09-01T15:35:36;5.32;;;1.20;;
55537;SDS011;41383;51.418;7.286;2022-09-01T15:38:01;5.18;;;1.40;;
55537;SDS011;41383;51.418;7.286;2022-09-01T15:40:27;2.70;;;1.35;;
55537;SDS011;41383;51.418;7.286;2022-09-01T15:42:53;4.07;;;1.45;;
55537;SDS011;41383;51.418;7.286;2022-09-01T15:45:21;5.20;;;1.58;;
55537;SDS011;41383;51.418;7.286;2022-09-01T15:47:48;6.82;;;2.28;;
55537;SDS011;41383;51.418;7.286;2022-09-01T15:50:14;7.15;;;1.38;;
55537;SDS011;41383;51.418;7.286;2022-09-01T15:55:15;2.88;;;1.20;;
55537;SDS011;41383;51.418;7.286;2022-09-01T15:57:42;2.55;;;0.95;;
55537;SDS011;41383;51.418;7.286;2022-09-01T16:00:07;7.82;;;2.03;;
55537;SDS011;41383;51.418;7.286;2022-09-01T16:02:34;2.58;;;1.45;;
55537;SDS011;41383;51.418;7.286;2022-09-01T16:04:59;3.07;;;1.30;;